Time;durP1;ratioP1;P1;durP2;ratioP2;P2;SDS_P1;SDS_P2;PMS_P1;PMS_P2;Temp;Humidity;BMP_temperature;BMP_pressure;BME280_temperature;BME280_humidity;BME280_pressure;Samples;Min_cycle;Max_cycle;Signal;HPM_P1;HPM_P2
2022/10/14 00:00:12;;;;;;;0.25;0.25;;;20.00;67.00;;;;;;4961451;28;20146;-40
2022/10/14 00:02:37;;;;;;;0.30;0.30;;;20.00;67.00;;;;;;4959206;28;20054;-42
2022/10/14 00:05:03;;;;;;;0.20;0.20;;;20.00;67.10;;;;;;4958699;28;20058;-38
2022/10/14 00:07:29;;;;;;;0.28;0.20;;;20.00;67.10;;;;;;4958626;28;20050;-50
2022/10/14 00:09:54;;;;;;;0.20;0.20;;;20.00;67.20;;;;;;4955454;28;20042;-53
2022/10/14 00:12:20;;;;;;;0.30;0.30;;;20.00;67.00;;;;;;4955432;28;20050;-48
2022/10/14 00:14:45;;;;;;;0.20;0.20;;;20.00;67.00;;;;;;4958992;28;20082;-56
2022/10/14 00:17:11;;;;;;;0.20;0.20;;;19.90;67.00;;;;;;4960101;28;20051;-49
2022/10/14 00:19:36;;;;;;;0.20;0.20;;;19.90;67.00;;;;;;4958457;28;20049;-53
2022/10/14 00:22:02;;;;;;;0.55;0.30;;;19.90;68.00;;;;;;4956757;28;20477;-52
2022/10/14 00:24:27;;;;;;;0.20;0.20;;;19.90;67.40;;;;;;4958410;28;20050;-54
2022/10/14 00:26:53;;;;;;;0.30;0.30;;;19.80;67.40;;;;;;4954958;28;20036;-49
2022/10/14 00:29:19;;;;;;;0.20;0.20;;;19.80;67.50;;;;;;4955890;28;20051;-57
2022/10/14 00:31:44;;;;;;;0.20;0.20;;;19.80;67.60;;;;;;4957282;28;20131;-44
2022/10/14 00:34:14;;;;;;;0.20;0.20;;;19.80;67.80;;;;;;4958820;28;20066;-12
2022/10/14 00:36:40;;;;;;;0.30;0.10;;;19.80;67.70;;;;;;4953946;28;20459;-22
2022/10/14 00:39:06;;;;;;;0.20;0.20;;;19.80;68.60;;;;;;4961906;28;20078;-12
2022/10/14 00:41:32;;;;;;;0.20;0.20;;;19.80;68.00;;;;;;4959666;28;20035;-15
2022/10/14 00:44:05;;;;;;;0.20;0.20;;;19.80;67.70;;;;;;4956917;28;20057;-12
2022/10/14 00:46:38;;;;;;;0.20;0.20;;;19.80;67.70;;;;;;4958618;28;20561;-22
2022/10/14 00:49:15;;;;;;;0.10;0.10;;;19.80;67.80;;;;;;4957822;28;20422;-11
2022/10/14 00:51:43;;;;;;;0.30;0.30;;;19.80;67.70;;;;;;4954627;28;20295;-18
2022/10/14 00:54:10;;;;;;;0.10;0.10;;;19.80;67.50;;;;;;4958461;28;20507;-13
2022/10/14 00:56:35;;;;;;;0.20;0.20;;;19.80;67.80;;;;;;4955608;28;20071;-12
2022/10/14 00:59:02;;;;;;;0.20;0.20;;;19.80;67.70;;;;;;4955185;28;20070;-12
2022/10/14 01:01:27;;;;;;;0.20;0.20;;;19.70;67.60;;;;;;4953476;28;20117;-14
2022/10/14 01:03:53;;;;;;;0.10;0.10;;;19.70;67.70;;;;;;4956153;28;20509;-12
2022/10/14 01:06:47;;;;;;;0.10;0.10;;;19.80;67.70;;;;;;4956464;28;20054;-11
2022/10/14 01:09:29;;;;;;;0.30;0.30;;;19.80;67.60;;;;;;4949517;28;20083;-12
2022/10/14 01:12:06;;;;;;;0.35;0.15;;;19.80;67.50;;;;;;4987821;28;20183;-16
2022/10/14 01:14:59;;;;;;;0.20;0.20;;;19.70;67.60;;;;;;4955121;28;20150;-13
2022/10/14 01:17:33;;;;;;;0.10;0.10;;;19.80;67.60;;;;;;4955846;28;20047;-12
2022/10/14 01:20:05;;;;;;;;;;;19.70;67.50;;;;;;4958932;28;20054;-11
2022/10/14 01:22:56;;;;;;;0.10;0.10;;;19.70;67.30;;;;;;4971909;28;19918;-11
2022/10/14 01:25:30;;;;;;;0.17;0.15;;;19.70;67.30;;;;;;4955326;28;20192;-13
2022/10/14 01:28:13;;;;;;;0.10;0.10;;;19.70;67.30;;;;;;4954627;28;20054;-12
2022/10/14 01:30:49;;;;;;;0.10;0.10;;;19.70;67.40;;;;;;4952017;28;20050;-11
2022/10/14 01:33:25;;;;;;;0.20;0.20;;;19.70;67.30;;;;;;4957058;28;20320;-11
2022/10/14 01:36:15;;;;;;;0.20;0.20;;;19.70;67.30;;;;;;4955703;28;20039;-23
2022/10/14 01:38:59;;;;;;;0.20;0.20;;;19.70;67.50;;;;;;4969856;28;20066;-10
2022/10/14 01:41:26;;;;;;;0.10;0.10;;;19.70;67.60;;;;;;4953298;28;20068;-11
2022/10/14 01:43:53;;;;;;;0.10;0.10;;;19.70;67.30;;;;;;4952318;28;20110;-15
2022/10/14 01:46:19;;;;;;;0.20;0.20;;;19.70;68.50;;;;;;4955797;28;20051;-11
2022/10/14 01:48:45;;;;;;;0.13;0.13;;;19.70;68.60;;;;;;4953679;28;20041;-12
2022/10/14 01:51:19;;;;;;;0.10;0.10;;;19.70;67.50;;;;;;4940289;28;20056;-11
2022/10/14 01:53:50;;;;;;;0.10;0.10;;;19.70;68.30;;;;;;4969387;28;20055;-12
2022/10/14 01:56:15;;;;;;;0.20;0.15;;;19.70;67.90;;;;;;4955554;28;20043;-11
2022/10/14 01:58:41;;;;;;;1.55;0.15;;;19.70;67.80;;;;;;4966838;28;20050;-11
2022/10/14 02:01:07;;;;;;;0.20;0.20;;;19.70;67.90;;;;;;4953870;28;20054;-20
2022/10/14 02:03:44;;;;;;;0.10;0.10;;;19.70;68.00;;;;;;4956084;28;20047;-14
2022/10/14 02:06:31;;;;;;;0.10;0.10;;;19.70;67.60;;;;;;4957338;28;20572;-12
2022/10/14 02:09:09;;;;;;;0.30;0.20;;;19.70;67.50;;;;;;4948722;28;20067;-11
2022/10/14 02:12:19;;;;;;;0.30;0.30;;;19.70;67.50;;;;;;4950566;28;20043;-26
2022/10/14 02:14:50;;;;;;;0.10;0.10;;;19.70;67.60;;;;;;4974685;28;20039;-14
2022/10/14 02:17:42;;;;;;;0.22;0.20;;;19.70;67.60;;;;;;4954871;28;20047;-11
2022/10/14 02:20:21;;;;;;;0.10;0.10;;;19.70;67.60;;;;;;4949364;28;20162;-12
2022/10/14 02:22:57;;;;;;;0.10;0.10;;;19.70;67.40;;;;;;4953248;28;20055;-11
2022/10/14 02:25:26;;;;;;;0.10;0.10;;;19.70;67.80;;;;;;4950598;28;20061;-11
2022/10/14 02:27:51;;;;;;;0.05;0.05;;;19.70;68.20;;;;;;4980677;28;20114;-16
2022/10/14 02:30:17;;;;;;;0.10;0.10;;;19.70;67.80;;;;;;4956041;28;20183;-13
2022/10/14 02:32:42;;;;;;;0.10;0.10;;;19.70;67.80;;;;;;4953473;28;20050;-11
2022/10/14 02:35:08;;;;;;;0.10;0.10;;;19.70;67.60;;;;;;4954638;28;20651;-17
2022/10/14 02:37:34;;;;;;;0.10;0.10;;;19.70;67.60;;;;;;4953479;28;20045;-14
2022/10/14 02:40:16;;;;;;;0.10;0.10;;;19.70;68.00;;;;;;4957092;28;20061;-15
2022/10/14 02:42:42;;;;;;;0.10;0.10;;;19.70;67.60;;;;;;4948324;28;20047;-11
2022/10/14 02:45:08;;;;;;;0.10;0.10;;;19.70;67.90;;;;;;4951441;28;20452;-11
2022/10/14 02:47:34;;;;;;;0.10;0.00;;;19.70;68.10;;;;;;4936844;28;20039;-13
2022/10/14 02:49:59;;;;;;;0.20;0.20;;;19.70;67.60;;;;;;4955211;28;20612;-20
2022/10/14 02:52:25;;;;;;;0.10;0.10;;;19.70;67.90;;;;;;4952423;28;20118;-20
2022/10/14 02:54:50;;;;;;;0.00;0.00;;;19.70;67.80;;;;;;4955260;28;20047;-15
2022/10/14 02:57:16;;;;;;;0.10;0.10;;;19.70;67.60;;;;;;4953850;28;20050;-17
2022/10/14 02:59:41;;;;;;;0.10;0.10;;;19.70;67.70;;;;;;4955970;28;20035;-12
2022/10/14 03:02:07;;;;;;;0.10;0.10;;;19.70;67.70;;;;;;4953598;28;20035;-18
2022/10/14 03:04:33;;;;;;;0.10;0.10;;;19.70;67.30;;;;;;4954879;28;20410;-19
2022/10/14 03:06:59;;;;;;;0.40;0.10;;;19.70;67.40;;;;;;4951710;28;20046;-11
2022/10/14 03:09:24;;;;;;;0.13;0.13;;;19.70;67.90;;;;;;4954163;28;20035;-11
2022/10/14 03:11:50;;;;;;;0.10;0.10;;;19.70;67.30;;;;;;4952103;28;20055;-11
2022/10/14 03:14:15;;;;;;;0.03;0.03;;;19.70;67.80;;;;;;4953227;28;20415;-15
2022/10/14 03:16:41;;;;;;;0.10;0.10;;;19.70;67.50;;;;;;4955780;28;20035;-11
2022/10/14 03:19:06;;;;;;;0.10;0.10;;;19.70;68.40;;;;;;4952322;28;20044;-11
2022/10/14 03:21:32;;;;;;;0.10;0.10;;;19.70;67.60;;;;;;4952997;28;20126;-11
2022/10/14 03:23:57;;;;;;;0.10;0.10;;;19.70;67.50;;;;;;4953898;28;20453;-11
2022/10/14 03:26:25;;;;;;;0.10;0.10;;;19.70;67.50;;;;;;4968539;28;20036;-12
2022/10/14 03:28:50;;;;;;;0.10;0.10;;;19.70;67.40;;;;;;4952865;28;20426;-11
2022/10/14 03:31:16;;;;;;;0.03;0.03;;;19.70;67.50;;;;;;4951821;28;20035;-13
2022/10/14 03:33:41;;;;;;;0.17;0.10;;;19.60;67.70;;;;;;4952218;28;20083;-11
2022/10/14 03:36:07;;;;;;;0.10;0.10;;;19.70;67.60;;;;;;4952252;28;20047;-11
2022/10/14 03:38:33;;;;;;;0.00;0.00;;;19.70;67.80;;;;;;4949699;28;20122;-13
2022/10/14 03:40:58;;;;;;;0.10;0.10;;;19.60;68.40;;;;;;4952936;28;20482;-15
2022/10/14 03:43:24;;;;;;;0.10;0.10;;;19.70;67.90;;;;;;4951307;28;20047;-11
2022/10/14 03:45:49;;;;;;;0.10;0.10;;;19.60;68.00;;;;;;4952898;28;20055;-14
2022/10/14 03:48:15;;;;;;;0.10;0.10;;;19.60;68.40;;;;;;4953490;28;20036;-12
2022/10/14 03:50:40;;;;;;;0.10;0.10;;;19.60;68.20;;;;;;4954808;28;20426;-15
2022/10/14 03:53:06;;;;;;;0.10;0.10;;;19.70;67.80;;;;;;4955168;28;20101;-19
2022/10/14 03:55:31;;;;;;;0.47;0.10;;;19.70;68.40;;;;;;4956748;28;20047;-22
2022/10/14 03:57:57;;;;;;;0.10;0.10;;;19.70;68.00;;;;;;4952638;28;20044;-16
2022/10/14 04:00:22;;;;;;;0.10;0.10;;;19.70;67.90;;;;;;4953429;28;20046;-18
2022/10/14 04:02:48;;;;;;;0.10;0.10;;;19.70;68.70;;;;;;4954674;28;20058;-11
2022/10/14 04:05:13;;;;;;;0.10;0.10;;;19.70;67.80;;;;;;4952796;28;20089;-11
2022/10/14 04:07:39;;;;;;;0.10;0.10;;;19.70;67.80;;;;;;4951159;28;20688;-11
2022/10/14 04:10:05;;;;;;;0.10;0.10;;;19.70;68.20;;;;;;4954969;28;20053;-11
2022/10/14 04:12:31;;;;;;;0.10;0.08;;;19.70;68.00;;;;;;4958156;28;20043;-16
2022/10/14 04:14:56;;;;;;;0.10;0.10;;;19.60;68.60;;;;;;4959143;28;20513;-13
2022/10/14 04:17:23;;;;;;;0.00;0.00;;;19.70;68.10;;;;;;4961974;28;20057;-15
2022/10/14 04:19:49;;;;;;;0.10;0.10;;;19.70;68.10;;;;;;4958445;28;20043;-13
2022/10/14 04:22:14;;;;;;;0.10;0.10;;;19.60;68.20;;;;;;4961221;28;20059;-11
2022/10/14 04:24:40;;;;;;;0.13;0.13;;;19.60;68.40;;;;;;4958810;28;20051;-18
2022/10/14 04:27:06;;;;;;;0.13;0.10;;;19.60;68.80;;;;;;4957425;28;20046;-11
2022/10/14 04:29:31;;;;;;;0.98;0.10;;;19.70;68.00;;;;;;4953985;28;20460;-18
2022/10/14 04:31:57;;;;;;;0.05;0.05;;;19.70;68.40;;;;;;4954352;28;20750;-16
2022/10/14 04:34:22;;;;;;;0.15;0.15;;;19.70;68.20;;;;;;4956350;28;20122;-11
2022/10/14 04:36:48;;;;;;;0.13;0.13;;;19.70;69.30;;;;;;4956399;28;20070;-26
2022/10/14 04:39:14;;;;;;;0.13;0.10;;;19.70;68.30;;;;;;4954723;28;20051;-18
2022/10/14 04:41:40;;;;;;;0.10;0.10;;;19.70;68.10;;;;;;4958249;28;20169;-11
2022/10/14 04:44:05;;;;;;;0.10;0.10;;;19.70;68.10;;;;;;4954221;28;20051;-11
2022/10/14 04:46:31;;;;;;;0.10;0.10;;;19.70;67.90;;;;;;4952394;28;20130;-21
2022/10/14 04:48:56;;;;;;;0.00;0.00;;;19.60;68.00;;;;;;4949405;28;20036;-17
2022/10/14 04:51:22;;;;;;;0.13;0.13;;;19.60;68.10;;;;;;4953905;28;20051;-11
2022/10/14 04:53:48;;;;;;;0.10;0.10;;;19.60;68.00;;;;;;4956288;28;20109;-11
2022/10/14 04:56:13;;;;;;;0.00;0.00;;;19.60;68.40;;;;;;4960115;28;20526;-11
2022/10/14 04:58:39;;;;;;;0.10;0.10;;;19.60;67.70;;;;;;4951635;28;20071;-11
2022/10/14 05:01:04;;;;;;;0.03;0.03;;;19.70;67.40;;;;;;4955475;28;20662;-15
2022/10/14 05:03:30;;;;;;;0.00;0.00;;;19.70;67.40;;;;;;4956688;28;20054;-17
2022/10/14 05:05:55;;;;;;;0.10;0.00;;;19.70;67.30;;;;;;4953482;28;20043;-16
2022/10/14 05:08:21;;;;;;;0.05;0.05;;;19.70;67.40;;;;;;4955661;28;20438;-11
2022/10/14 05:10:47;;;;;;;0.10;0.10;;;19.70;67.80;;;;;;4957570;28;20122;-15
2022/10/14 05:13:13;;;;;;;0.10;0.10;;;19.70;67.30;;;;;;4955223;28;20077;-13
2022/10/14 05:15:39;;;;;;;0.00;0.00;;;19.70;67.30;;;;;;4606579;28;10000916;-11
2022/10/14 05:18:04;;;;;;;0.10;0.10;;;19.70;68.10;;;;;;4949077;28;20063;-16
2022/10/14 05:20:30;;;;;;;0.03;0.03;;;19.70;67.60;;;;;;4951804;28;20777;-13
2022/10/14 05:22:56;;;;;;;0.08;0.08;;;19.70;67.60;;;;;;4954152;28;20530;-11
2022/10/14 05:25:21;;;;;;;0.10;0.00;;;19.70;67.60;;;;;;4926851;28;20048;-14
2022/10/14 05:27:47;;;;;;;0.10;0.10;;;19.80;68.40;;;;;;4932775;28;20121;-11
2022/10/14 05:30:12;;;;;;;0.00;0.00;;;19.70;67.50;;;;;;4953327;28;20105;-11
2022/10/14 05:32:38;;;;;;;0.10;0.10;;;19.70;67.60;;;;;;4952505;28;20154;-11
2022/10/14 05:35:04;;;;;;;0.10;0.10;;;19.70;67.40;;;;;;4953479;28;20071;-15
2022/10/14 05:37:29;;;;;;;0.10;0.10;;;19.80;67.80;;;;;;4949953;28;20039;-12
2022/10/14 05:39:55;;;;;;;0.25;0.20;;;19.80;67.50;;;;;;4951673;28;20529;-18
2022/10/14 05:42:20;;;;;;;0.43;0.10;;;19.80;67.50;;;;;;4953067;28;20047;-11
2022/10/14 05:44:46;;;;;;;0.13;0.10;;;19.80;68.30;;;;;;4955144;28;20074;-12
2022/10/14 05:47:11;;;;;;;0.00;0.00;;;19.80;67.60;;;;;;4952543;28;20538;-11
2022/10/14 05:49:37;;;;;;;0.05;0.05;;;19.90;67.30;;;;;;4956383;28;20492;-12
2022/10/14 05:52:03;;;;;;;0.10;0.10;;;19.80;67.30;;;;;;4949713;28;20046;-11
2022/10/14 05:54:28;;;;;;;0.00;0.00;;;19.80;67.30;;;;;;4952527;28;20058;-11
2022/10/14 05:56:54;;;;;;;0.10;0.10;;;19.80;67.20;;;;;;4954956;28;20529;-17
2022/10/14 05:59:20;;;;;;;0.00;0.00;;;19.90;67.20;;;;;;4948718;28;20047;-10
2022/10/14 06:01:46;;;;;;;0.47;0.10;;;19.90;67.10;;;;;;4955166;28;20054;-12
2022/10/14 06:04:16;;;;;;;0.00;0.00;;;19.80;67.60;;;;;;4947809;28;20059;-15
2022/10/14 06:06:42;;;;;;;0.00;0.00;;;19.80;67.30;;;;;;4950896;28;20091;-16
2022/10/14 06:09:07;;;;;;;0.00;0.00;;;19.90;67.30;;;;;;4955933;28;20111;-27
2022/10/14 06:11:33;;;;;;;0.00;0.00;;;19.90;67.30;;;;;;4955872;28;20043;-11
2022/10/14 06:13:58;;;;;;;0.00;0.00;;;19.80;67.50;;;;;;4952519;28;20043;-16
2022/10/14 06:16:24;;;;;;;0.10;0.10;;;19.80;67.50;;;;;;4952861;28;20042;-18
2022/10/14 06:18:49;;;;;;;0.45;0.10;;;19.80;67.50;;;;;;4954541;28;20616;-13
2022/10/14 06:21:15;;;;;;;0.10;0.10;;;19.80;67.60;;;;;;4949940;28;20054;-11
2022/10/14 06:23:41;;;;;;;0.05;0.05;;;19.90;67.40;;;;;;4950464;28;20055;-11
2022/10/14 06:26:08;;;;;;;0.00;0.00;;;19.90;66.90;;;;;;4952118;28;20130;-11
2022/10/14 06:28:34;;;;;;;0.13;0.00;;;19.90;67.10;;;;;;4950579;28;20051;-11
2022/10/14 06:31:00;;;;;;;0.00;0.00;;;19.90;67.00;;;;;;4949092;28;20062;-11
2022/10/14 06:33:27;;;;;;;0.80;0.10;;;19.90;66.90;;;;;;4954138;28;20441;-14
2022/10/14 06:35:52;;;;;;;0.08;0.08;;;20.00;67.00;;;;;;4953550;28;20089;-14
2022/10/14 06:38:18;;;;;;;0.10;0.10;;;20.10;66.70;;;;;;4956182;28;20741;-29
2022/10/14 06:40:43;;;;;;;0.10;0.10;;;20.10;66.70;;;;;;4947508;28;20058;-22
2022/10/14 06:43:09;;;;;;;1.45;0.20;;;20.10;66.70;;;;;;4946782;28;20039;-22
2022/10/14 06:45:35;;;;;;;0.10;0.10;;;20.00;66.80;;;;;;4956858;28;20065;-15
2022/10/14 06:48:00;;;;;;;0.00;0.00;;;20.00;66.70;;;;;;4954693;28;20077;-10
2022/10/14 06:50:26;;;;;;;0.10;0.05;;;20.00;66.80;;;;;;4952137;28;20054;-22
2022/10/14 06:52:51;;;;;;;0.10;0.10;;;20.00;67.00;;;;;;4955389;28;20510;-34
2022/10/14 06:55:17;;;;;;;0.22;0.10;;;20.00;67.00;;;;;;4957961;28;20113;-23
2022/10/14 06:57:43;;;;;;;0.10;0.00;;;19.90;66.90;;;;;;4952657;28;20078;-16
2022/10/14 07:00:08;;;;;;;0.10;0.10;;;19.90;67.10;;;;;;4954398;28;20125;-13
2022/10/14 07:02:36;;;;;;;0.03;0.03;;;19.90;67.20;;;;;;4954073;28;20043;-19
2022/10/14 07:05:01;;;;;;;0.93;0.10;;;19.80;67.30;;;;;;4952387;28;20047;-20
2022/10/14 07:07:27;;;;;;;0.68;0.20;;;19.80;67.20;;;;;;4969360;28;20645;-9
2022/10/14 07:09:53;;;;;;;0.00;0.00;;;19.80;67.40;;;;;;4955622;28;20054;-20
2022/10/14 07:12:18;;;;;;;0.73;0.00;;;19.80;67.40;;;;;;4956751;28;20055;-28
2022/10/14 07:14:44;;;;;;;0.55;0.08;;;19.80;67.20;;;;;;4952604;28;20070;-20
2022/10/14 07:17:09;;;;;;;0.00;0.00;;;19.80;67.30;;;;;;4951763;28;20043;-9
2022/10/14 07:19:35;;;;;;;0.20;0.20;;;19.80;67.50;;;;;;4954366;28;20058;-11
2022/10/14 07:22:00;;;;;;;0.00;0.00;;;19.70;67.40;;;;;;4953502;28;20051;-15
2022/10/14 07:24:26;;;;;;;0.10;0.10;;;19.70;67.40;;;;;;4952867;28;20498;-24
2022/10/14 07:26:51;;;;;;;0.50;0.10;;;19.70;67.30;;;;;;4953051;28;20407;-11
2022/10/14 07:29:17;;;;;;;0.57;0.10;;;19.70;67.60;;;;;;4954275;28;20042;-27
2022/10/14 07:31:42;;;;;;;0.03;0.00;;;19.70;67.70;;;;;;4968346;28;20046;-21
2022/10/14 07:34:08;;;;;;;0.20;0.20;;;19.70;67.60;;;;;;4952301;28;20039;-16
2022/10/14 07:36:34;;;;;;;0.10;0.10;;;19.70;67.70;;;;;;4955786;28;21169;-40
2022/10/14 07:39:00;;;;;;;0.00;0.00;;;19.70;67.70;;;;;;4956779;28;20054;-22
2022/10/14 07:41:26;;;;;;;0.08;0.00;;;19.70;67.70;;;;;;4958955;28;20039;-23
2022/10/14 07:44:04;;;;;;;0.00;0.00;;;19.60;67.70;;;;;;4952516;28;20090;-18
2022/10/14 07:46:32;;;;;;;0.00;0.00;;;19.70;67.60;;;;;;4958705;28;20146;-34
2022/10/14 07:49:00;;;;;;;0.20;0.00;;;19.60;67.70;;;;;;4957307;28;20046;-11
2022/10/14 07:51:26;;;;;;;0.20;0.10;;;19.60;68.00;;;;;;4957065;28;20059;-9
2022/10/14 07:53:52;;;;;;;0.00;0.00;;;19.60;67.90;;;;;;4961943;28;20078;-27
2022/10/14 07:56:18;;;;;;;0.20;0.10;;;19.60;68.60;;;;;;4960594;28;20047;-24
2022/10/14 07:58:45;;;;;;;0.00;0.00;;;19.60;67.70;;;;;;4957075;28;20041;-27
2022/10/14 08:01:10;;;;;;;0.00;0.00;;;19.60;67.60;;;;;;4958803;28;20039;-21
2022/10/14 08:03:36;;;;;;;0.20;0.20;;;19.60;67.50;;;;;;4957153;28;20051;-15
2022/10/14 08:06:02;;;;;;;0.10;0.00;;;19.60;67.50;;;;;;4958002;28;20126;-13
2022/10/14 08:08:28;;;;;;;0.00;0.00;;;19.60;67.60;;;;;;4956444;28;20051;-21
2022/10/14 08:11:05;;;;;;;0.10;0.10;;;19.60;67.60;;;;;;4956724;28;20145;-19
2022/10/14 08:13:31;;;;;;;0.00;0.00;;;19.60;67.60;;;;;;4956023;28;20043;-9
2022/10/14 08:15:56;;;;;;;0.00;0.00;;;19.60;68.50;;;;;;4958712;28;20066;-16
2022/10/14 08:18:22;;;;;;;0.00;0.00;;;19.60;67.60;;;;;;4957558;28;20042;-16
2022/10/14 08:20:47;;;;;;;0.10;0.10;;;19.60;67.50;;;;;;4957723;28;20441;-21
2022/10/14 08:23:13;;;;;;;0.00;0.00;;;19.60;67.40;;;;;;4955663;28;20055;-19
2022/10/14 08:25:39;;;;;;;0.00;0.00;;;19.60;67.40;;;;;;4956652;28;20173;-28
2022/10/14 08:28:04;;;;;;;0.03;0.03;;;19.60;67.40;;;;;;4939822;28;21317;-36
2022/10/14 08:30:30;;;;;;;0.10;0.00;;;19.60;67.40;;;;;;4957828;28;20524;-9
2022/10/14 08:32:55;;;;;;;0.10;0.03;;;19.60;67.30;;;;;;4956623;28;20058;-25
2022/10/14 08:35:21;;;;;;;0.00;0.00;;;19.60;67.20;;;;;;4957792;28;20047;-23
2022/10/14 08:37:59;;;;;;;0.05;0.05;;;19.60;68.00;;;;;;4953341;28;20485;-10
2022/10/14 08:40:27;;;;;;;0.00;0.00;;;19.60;67.30;;;;;;4954469;28;20036;-14
2022/10/14 08:43:01;;;;;;;0.10;0.10;;;19.60;67.10;;;;;;4957280;28;20430;-18
2022/10/14 08:45:34;;;;;;;0.10;0.10;;;19.60;67.20;;;;;;4972771;28;20048;-20
2022/10/14 08:48:01;;;;;;;0.00;0.00;;;19.60;67.20;;;;;;4952658;28;20069;-18
2022/10/14 08:50:39;;;;;;;0.00;0.00;;;19.60;68.00;;;;;;4975928;28;20581;-18
2022/10/14 08:53:09;;;;;;;0.10;0.10;;;19.60;67.20;;;;;;4952193;28;20043;-21
2022/10/14 08:55:39;;;;;;;0.00;0.00;;;19.60;67.10;;;;;;4955242;28;20055;-31
2022/10/14 08:58:13;;;;;;;0.10;0.10;;;19.60;67.10;;;;;;4970338;28;20573;-33
2022/10/14 09:00:39;;;;;;;;;;;19.60;67.10;;;;;;4954112;28;20526;-27
2022/10/14 09:03:13;;;;;;;0.08;0.05;;;19.60;67.10;;;;;;4958202;28;19994;-22
2022/10/14 09:05:38;;;;;;;0.00;0.00;;;19.60;67.20;;;;;;4952508;28;20053;-8
2022/10/14 09:08:04;;;;;;;0.00;0.00;;;19.60;67.10;;;;;;4955612;28;20035;-17
2022/10/14 09:10:31;;;;;;;0.00;0.00;;;19.60;67.00;;;;;;4970833;28;20194;-19
2022/10/14 09:12:59;;;;;;;0.10;0.10;;;19.60;66.90;;;;;;4974240;28;20055;-39
2022/10/14 09:15:30;;;;;;;0.03;0.03;;;19.60;67.00;;;;;;4956277;28;20517;-17
2022/10/14 09:17:58;;;;;;;0.03;0.00;;;19.60;66.90;;;;;;4954162;28;20043;-21
2022/10/14 09:20:24;;;;;;;0.00;0.00;;;19.60;66.80;;;;;;4953174;28;20089;-34
2022/10/14 09:23:09;;;;;;;0.00;0.00;;;19.70;66.80;;;;;;4953952;28;20415;-14
2022/10/14 09:25:35;;;;;;;0.00;0.00;;;19.60;66.90;;;;;;4956521;28;20542;-41
2022/10/14 09:28:00;;;;;;;0.00;0.00;;;19.60;66.90;;;;;;4955298;28;20069;-13
2022/10/14 09:30:26;;;;;;;0.15;0.00;;;19.60;66.90;;;;;;4957586;28;20670;-35
2022/10/14 09:32:53;;;;;;;0.00;0.00;;;19.60;67.00;;;;;;4955581;28;20133;-25
2022/10/14 09:35:27;;;;;;;0.20;0.00;;;19.60;66.90;;;;;;4952681;28;20039;-23
2022/10/14 09:37:53;;;;;;;0.10;0.10;;;19.60;66.90;;;;;;4966609;28;20074;-19
2022/10/14 09:40:28;;;;;;;0.00;0.00;;;19.60;67.00;;;;;;4953332;28;20671;-33
2022/10/14 09:43:03;;;;;;;0.10;0.08;;;19.60;67.00;;;;;;4950428;28;20051;-22
2022/10/14 09:45:45;;;;;;;0.20;0.00;;;19.60;67.80;;;;;;4939055;28;20071;-8
2022/10/14 09:48:13;;;;;;;2.45;0.10;;;19.60;67.00;;;;;;4952881;28;20473;-10
2022/10/14 09:50:41;;;;;;;0.00;0.00;;;19.60;66.90;;;;;;4956439;28;20047;-11
2022/10/14 09:53:15;;;;;;;0.00;0.00;;;19.60;66.90;;;;;;4954986;28;20055;-7
2022/10/14 09:55:51;;;;;;;0.10;0.00;;;19.60;66.90;;;;;;4956188;28;20145;-11
2022/10/14 09:58:18;;;;;;;1.33;0.00;;;19.60;66.90;;;;;;4959775;28;20130;-14
2022/10/14 10:00:43;;;;;;;0.03;0.00;;;19.60;66.90;;;;;;4955655;28;20478;-20
2022/10/14 10:03:09;;;;;;;0.00;0.00;;;19.60;66.80;;;;;;4951115;28;20043;-12
2022/10/14 10:05:35;;;;;;;0.03;0.00;;;19.60;66.90;;;;;;4969117;28;20050;-20
2022/10/14 10:08:17;;;;;;;0.00;0.00;;;19.60;66.80;;;;;;4955054;28;20046;-31
2022/10/14 10:11:08;;;;;;;0.05;0.00;;;19.70;67.30;;;;;;4943184;28;20050;-10
2022/10/14 10:13:45;;;;;;;0.00;0.00;;;19.80;66.50;;;;;;4605918;28;10000473;-8
2022/10/14 10:16:24;;;;;;;0.28;0.10;;;19.80;66.60;;;;;;4947205;28;20581;-20
2022/10/14 10:18:50;;;;;;;0.00;0.00;;;19.80;67.30;;;;;;4947892;28;20098;-7
2022/10/14 10:21:28;;;;;;;0.00;0.00;;;19.80;67.00;;;;;;4945082;28;20047;-17
2022/10/14 10:24:00;;;;;;;0.05;0.05;;;19.80;67.20;;;;;;4939326;28;20058;-17
2022/10/14 10:26:30;;;;;;;0.00;0.00;;;19.80;67.30;;;;;;4938447;28;20507;-30
2022/10/14 10:28:56;;;;;;;0.00;0.00;;;19.90;67.20;;;;;;4942311;28;20476;-29
2022/10/14 10:31:33;;;;;;;0.10;0.10;;;19.90;67.10;;;;;;4946048;28;20051;-10
2022/10/14 10:34:02;;;;;;;0.00;0.00;;;19.90;67.30;;;;;;4942364;28;20043;-18
2022/10/14 10:36:39;;;;;;;0.10;0.00;;;19.90;66.80;;;;;;4949127;28;20058;-21
2022/10/14 10:39:05;;;;;;;0.10;0.10;;;19.90;67.10;;;;;;4948178;28;20536;-24
2022/10/14 10:41:53;;;;;;;0.00;0.00;;;19.90;67.20;;;;;;4952969;28;20067;-30
2022/10/14 10:44:46;;;;;;;0.00;0.00;;;19.80;67.20;;;;;;4933708;28;20548;-21
2022/10/14 10:47:17;;;;;;;0.00;0.00;;;19.80;67.40;;;;;;4948675;28;20051;-23
2022/10/14 10:49:49;;;;;;;0.10;0.00;;;19.80;67.50;;;;;;4944018;28;20149;-14
2022/10/14 10:52:44;;;;;;;0.10;0.10;;;19.80;67.50;;;;;;4964459;28;20087;-17
2022/10/14 10:55:18;;;;;;;0.05;0.05;;;19.80;67.50;;;;;;4937637;28;20047;-35
2022/10/14 10:58:02;;;;;;;0.10;0.00;;;19.80;67.40;;;;;;4930096;28;20047;-10
2022/10/14 11:00:28;;;;;;;0.00;0.00;;;19.90;67.30;;;;;;4935526;28;20107;-29
2022/10/14 11:02:57;;;;;;;0.03;0.03;;;20.00;67.00;;;;;;4903141;28;20067;-19
2022/10/14 11:05:43;;;;;;;0.00;0.00;;;20.00;67.80;;;;;;4930379;28;20082;-24
2022/10/14 11:14:30;;;;;;;0.00;0.00;;;19.90;67.00;;;;;;4934638;28;20457;-19
2022/10/14 11:17:22;;;;;;;0.10;0.00;;;20.00;67.10;;;;;;4941140;28;20039;-18
2022/10/14 11:19:58;;;;;;;0.10;0.10;;;19.90;67.20;;;;;;4933811;28;20490;-30
2022/10/14 11:22:39;;;;;;;0.08;0.00;;;19.90;67.20;;;;;;4930463;28;20114;-16
2022/10/14 11:25:10;;;;;;;0.00;0.00;;;19.90;67.30;;;;;;4940590;28;20876;-22
2022/10/14 11:27:46;;;;;;;0.10;0.10;;;19.90;67.30;;;;;;4945278;28;20137;-40
2022/10/14 11:30:18;;;;;;;0.00;0.00;;;19.90;67.50;;;;;;4926215;28;20122;-16
2022/10/14 11:33:10;;;;;;;0.13;0.00;;;19.90;67.30;;;;;;4949245;28;20047;-38
2022/10/14 11:35:57;;;;;;;0.00;0.00;;;19.90;67.10;;;;;;4945850;28;20036;-15
2022/10/14 11:38:32;;;;;;;0.10;0.00;;;19.90;67.70;;;;;;4945895;28;20445;-10
2022/10/14 11:41:04;;;;;;;0.17;0.10;;;19.90;67.30;;;;;;4945918;28;20035;-9
2022/10/14 11:43:59;;;;;;;0.17;0.10;;;19.90;67.30;;;;;;4945357;28;20055;-24
2022/10/14 11:46:31;;;;;;;1.33;0.10;;;19.80;68.20;;;;;;4947902;28;20054;-17
2022/10/14 11:49:17;;;;;;;2.30;0.40;;;19.90;68.30;;;;;;4945969;28;20536;-19
2022/10/14 11:51:47;;;;;;;0.43;0.20;;;20.00;68.70;;;;;;4948386;28;20046;-25
2022/10/14 11:54:34;;;;;;;0.20;0.20;;;19.90;71.40;;;;;;4950699;28;20055;-11
2022/10/14 11:57:13;;;;;;;0.75;0.32;;;19.90;69.10;;;;;;4938941;28;20047;-33
2022/10/14 11:59:59;;;;;;;0.63;0.25;;;19.90;71.20;;;;;;4980264;28;20090;-23
2022/10/14 12:02:56;;;;;;;0.60;0.20;;;19.90;69.80;;;;;;4955686;28;20040;-17
2022/10/14 12:05:34;;;;;;;0.52;0.13;;;20.00;69.10;;;;;;4953635;28;20044;-9
2022/10/14 12:08:09;;;;;;;0.20;0.10;;;20.00;68.90;;;;;;4967529;28;20039;-18
2022/10/14 12:10:47;;;;;;;0.50;0.20;;;20.10;68.80;;;;;;4954258;28;20122;-11
2022/10/14 12:13:17;;;;;;;0.47;0.20;;;20.10;68.50;;;;;;4943945;28;20051;-26
2022/10/14 12:15:48;;;;;;;0.80;0.10;;;20.10;68.40;;;;;;4968506;28;20125;-24
2022/10/14 12:18:13;;;;;;;0.50;0.10;;;20.10;68.70;;;;;;4936032;28;20071;-20
2022/10/14 12:21:21;;;;;;;0.57;0.40;;;20.00;68.80;;;;;;4950175;28;20046;-10
2022/10/14 12:23:56;;;;;;;0.25;0.17;;;20.00;68.70;;;;;;4931403;28;20047;-15
2022/10/14 12:26:22;;;;;;;0.38;0.20;;;20.10;68.80;;;;;;4950504;28;21233;-17
2022/10/14 12:28:47;;;;;;;0.20;0.20;;;20.00;69.10;;;;;;4952452;28;20050;-11
2022/10/14 12:31:37;;;;;;;0.20;0.20;;;20.00;69.00;;;;;;4964789;28;20042;-30
2022/10/14 12:34:09;;;;;;;1.65;0.30;;;20.00;69.40;;;;;;4953338;28;20047;-16
2022/10/14 12:36:35;;;;;;;1.45;0.20;;;20.00;69.40;;;;;;4952820;28;20459;-28
2022/10/14 12:39:21;;;;;;;0.17;0.17;;;20.00;69.30;;;;;;4969848;28;20055;-31
2022/10/14 12:42:08;;;;;;;0.30;0.10;;;20.00;69.40;;;;;;4955585;28;20372;-16
2022/10/14 12:44:56;;;;;;;0.57;0.20;;;20.00;69.40;;;;;;4968639;28;20086;-23
2022/10/14 12:47:34;;;;;;;0.40;0.15;;;20.00;69.30;;;;;;4958674;28;20415;-20
2022/10/14 12:50:05;;;;;;;0.32;0.10;;;20.00;69.20;;;;;;4983138;28;20418;-21
2022/10/14 12:52:32;;;;;;;0.20;0.20;;;20.00;69.10;;;;;;4953159;28;20039;-13
2022/10/14 12:54:59;;;;;;;0.30;0.13;;;20.10;69.10;;;;;;4969794;28;20049;-12
2022/10/14 12:57:26;;;;;;;0.47;0.10;;;20.00;68.90;;;;;;4983577;28;20110;-22
2022/10/14 12:59:52;;;;;;;0.20;0.10;;;20.10;68.80;;;;;;4948904;28;20794;-23
2022/10/14 13:02:24;;;;;;;0.25;0.10;;;20.10;68.70;;;;;;4985311;28;20545;-18
2022/10/14 13:04:50;;;;;;;0.80;0.20;;;20.00;68.70;;;;;;4982477;28;20093;-8
2022/10/14 13:07:16;;;;;;;1.90;0.10;;;20.00;68.40;;;;;;4951552;28;20113;-21